createdAt,value
2023-05-25T00:00:31.501Z,82.39
2023-05-25T00:02:59.501Z,82.40
2023-05-25T00:05:27.777Z,82.73
2023-05-25T00:07:55.553Z,83.17
2023-05-25T00:10:24.293Z,82.98
2023-05-25T00:12:51.975Z,83.44
2023-05-25T00:15:19.148Z,83.46
2023-05-25T00:17:49.035Z,83.71
2023-05-25T00:20:16.371Z,83.57
2023-05-25T00:22:47.646Z,83.62
2023-05-25T00:25:14.680Z,84.34
2023-05-25T00:27:41.626Z,84.77
2023-05-25T00:30:09.088Z,85.33
2023-05-25T00:32:36.768Z,85.41
2023-05-25T00:35:04.162Z,85.30
2023-05-25T00:37:31.476Z,87.65
2023-05-25T00:39:58.585Z,87.56
2023-05-25T00:42:28.162Z,88.00
2023-05-25T00:44:55.254Z,89.63
2023-05-25T00:47:22.693Z,90.60
2023-05-25T00:49:50.928Z,91.15
2023-05-25T00:52:18.444Z,91.98
2023-05-25T00:54:47.887Z,92.67
2023-05-25T00:57:15.046Z,92.46
2023-05-25T00:59:46.581Z,92.50
2023-05-25T01:02:17.072Z,92.75
2023-05-25T01:05:00.609Z,91.22
2023-05-25T01:07:33.975Z,90.54
2023-05-25T01:10:05.351Z,90.52
2023-05-25T01:12:40.700Z,90.05
2023-05-25T01:15:09.201Z,89.26
2023-05-25T01:17:39.279Z,89.15
2023-05-25T01:20:11.648Z,89.21
2023-05-25T01:22:51.443Z,89.42
2023-05-25T01:25:30.233Z,89.93
2023-05-25T01:28:06.848Z,90.50
2023-05-25T01:30:38.133Z,91.07
2023-05-25T01:33:05.685Z,91.03
2023-05-25T01:35:33.998Z,91.63
2023-05-25T01:38:01.299Z,93.15
2023-05-25T01:40:28.464Z,93.58
2023-05-25T01:42:55.606Z,92.55
2023-05-25T01:45:23.128Z,92.14
2023-05-25T01:48:23.862Z,93.04
2023-05-25T01:50:59.511Z,93.96
2023-05-25T01:53:52.574Z,92.34
2023-05-25T01:56:21.629Z,92.20
2023-05-25T01:58:50.920Z,93.97
2023-05-25T02:01:18.787Z,93.52
2023-05-25T02:03:49.232Z,92.96
2023-05-25T02:06:16.886Z,93.28
2023-05-25T02:08:44.357Z,93.98
2023-05-25T02:11:13.430Z,94.92
2023-05-25T02:13:40.841Z,94.68
2023-05-25T02:16:08.463Z,94.71
2023-05-25T02:18:35.918Z,93.99
2023-05-25T02:21:05.187Z,93.69
2023-05-25T02:23:32.201Z,93.31
2023-05-25T02:25:59.313Z,93.66
2023-05-25T02:28:26.600Z,94.29
2023-05-25T02:30:54.810Z,94.21
2023-05-25T02:33:21.942Z,94.94
2023-05-25T02:35:50.071Z,95.88
2023-05-25T02:38:17.089Z,95.45
2023-05-25T02:40:46.024Z,96.69
2023-05-25T02:43:13.457Z,97.04
2023-05-25T02:45:40.715Z,96.86
2023-05-25T02:48:07.780Z,96.14
2023-05-25T02:50:35.472Z,96.32
2023-05-25T02:53:06.246Z,98.20
2023-05-25T02:55:33.460Z,98.68
2023-05-25T02:58:00.831Z,98.24
2023-05-25T03:00:46.936Z,98.06
2023-05-25T03:03:14.789Z,97.50
2023-05-25T03:05:42.090Z,96.40
2023-05-25T03:08:09.295Z,95.63
2023-05-25T03:10:36.414Z,95.73
2023-05-25T03:13:03.753Z,96.43
2023-05-25T03:15:30.859Z,97.27
2023-05-25T03:18:01.315Z,96.09
2023-05-25T03:20:33.062Z,94.85
2023-05-25T03:23:00.352Z,94.41
2023-05-25T03:25:27.307Z,94.71
2023-05-25T03:27:54.942Z,95.01
2023-05-25T03:30:22.810Z,93.79
2023-05-25T03:32:49.861Z,93.54
2023-05-25T03:35:16.934Z,93.56
2023-05-25T03:37:43.891Z,93.16
2023-05-25T03:40:11.904Z,92.13
2023-05-25T03:42:39.230Z,91.78
2023-05-25T03:45:09.175Z,91.32
2023-05-25T03:47:37.093Z,91.54
2023-05-25T03:50:07.085Z,91.22
2023-05-25T03:52:34.173Z,91.79
2023-05-25T03:55:04.622Z,90.82
2023-05-25T03:57:31.939Z,90.75
2023-05-25T03:59:59.571Z,91.34
2023-05-25T04:02:26.646Z,90.79
2023-05-25T04:04:57.133Z,90.34
2023-05-25T04:07:27.445Z,89.00
2023-05-25T04:09:54.443Z,88.09
2023-05-25T04:12:22.275Z,86.52
2023-05-25T04:14:49.280Z,85.31
2023-05-25T04:17:18.998Z,84.96
2023-05-25T04:19:45.979Z,84.23
2023-05-25T04:22:12.920Z,82.62
2023-05-25T04:24:41.181Z,80.92
2023-05-25T04:27:08.796Z,80.22
2023-05-25T04:29:38.316Z,78.99
2023-05-25T04:32:23.906Z,78.78
2023-05-25T04:35:09.876Z,79.01
2023-05-25T04:37:43.903Z,79.44
2023-05-25T04:40:12.048Z,79.31
2023-05-25T04:42:39.958Z,78.90
2023-05-25T04:45:11.317Z,78.36
2023-05-25T04:47:41.227Z,77.18
2023-05-25T04:50:11.938Z,75.70
2023-05-25T04:52:39.200Z,75.23
2023-05-25T04:55:06.713Z,74.16
2023-05-25T04:57:38.054Z,73.24
2023-05-25T05:00:06.372Z,73.74
2023-05-25T05:02:34.606Z,73.95
2023-05-25T05:05:01.751Z,73.39
2023-05-25T05:07:31.778Z,74.14
2023-05-25T05:09:58.779Z,75.16
2023-05-25T05:12:26.456Z,75.67
2023-05-25T05:14:56.387Z,76.15
2023-05-25T05:17:24.078Z,76.22
2023-05-25T05:19:51.858Z,76.50
2023-05-25T05:22:18.978Z,76.40
2023-05-25T05:24:46.053Z,76.23
2023-05-25T05:27:19.680Z,76.55
2023-05-25T05:29:53.223Z,76.34
2023-05-25T05:32:20.660Z,76.83
2023-05-25T05:34:47.922Z,75.85
2023-05-25T05:37:31.069Z,75.30
2023-05-25T05:39:58.110Z,76.12
2023-05-25T05:42:25.117Z,75.80
2023-05-25T05:44:52.095Z,74.74
2023-05-25T05:47:19.422Z,74.46
2023-05-25T05:49:47.475Z,74.06
2023-05-25T05:52:14.454Z,73.31
2023-05-25T05:54:41.357Z,73.04
2023-05-25T05:57:11.896Z,71.78
2023-05-25T05:59:39.133Z,71.09
2023-05-25T06:02:07.461Z,70.54
2023-05-25T06:04:34.602Z,70.13
2023-05-25T06:07:01.567Z,69.94
2023-05-25T06:09:28.750Z,68.26
2023-05-25T06:11:59.812Z,67.40
2023-05-25T06:14:28.755Z,67.79
2023-05-25T06:16:58.987Z,67.99
2023-05-25T06:19:26.229Z,67.78
2023-05-25T06:21:53.142Z,67.14
2023-05-25T06:24:21.924Z,66.50
2023-05-25T06:26:50.038Z,65.95
2023-05-25T06:29:17.920Z,65.30
2023-05-25T06:31:45.131Z,63.87
2023-05-25T06:34:12.733Z,63.61
2023-05-25T06:36:41.633Z,62.00
2023-05-25T06:39:10.229Z,61.88
2023-05-25T06:41:39.177Z,61.24
2023-05-25T06:44:07.473Z,62.35
2023-05-25T06:46:42.019Z,63.38
2023-05-25T06:49:09.739Z,61.89
2023-05-25T06:51:37.269Z,62.91
2023-05-25T06:54:04.315Z,62.96
2023-05-25T06:56:31.466Z,62.62
2023-05-25T06:58:58.917Z,62.93
2023-05-25T07:01:26.588Z,60.84
2023-05-25T07:03:53.538Z,61.53
2023-05-25T07:06:20.838Z,59.87
2023-05-25T07:08:47.721Z,60.30
2023-05-25T07:11:14.689Z,59.99
2023-05-25T07:13:41.900Z,59.68
2023-05-25T07:16:09.202Z,60.38
2023-05-25T07:18:39.742Z,59.47
2023-05-25T07:21:10.150Z,59.65
2023-05-25T07:23:37.991Z,59.13
2023-05-25T07:26:06.007Z,57.34
2023-05-25T07:28:33.722Z,56.21
2023-05-25T07:31:01.507Z,56.21
2023-05-25T07:33:28.969Z,54.80
2023-05-25T07:35:56.011Z,57.67
2023-05-25T07:38:22.880Z,58.41
2023-05-25T07:40:50.118Z,55.85
2023-05-25T07:43:17.048Z,57.81
2023-05-25T07:45:44.261Z,57.94
2023-05-25T07:48:11.369Z,57.60
2023-05-25T07:50:38.615Z,57.57
2023-05-25T07:53:05.540Z,58.06
2023-05-25T07:55:32.569Z,57.12
2023-05-25T07:57:59.629Z,56.99
2023-05-25T08:00:26.686Z,58.98
2023-05-25T08:02:53.735Z,59.05
2023-05-25T08:05:20.710Z,58.92
2023-05-25T08:07:47.722Z,61.38
2023-05-25T08:10:14.812Z,61.63
2023-05-25T08:12:47.870Z,60.96
2023-05-25T08:15:17.429Z,61.67
2023-05-25T08:17:44.897Z,66.43
2023-05-25T08:20:12.698Z,67.88
2023-05-25T08:22:39.737Z,69.07
2023-05-25T08:25:08.166Z,70.28
2023-05-25T08:27:36.385Z,71.97
2023-05-25T08:30:06.160Z,73.37
2023-05-25T08:32:33.540Z,73.93
2023-05-25T08:35:02.034Z,74.21
2023-05-25T08:37:35.769Z,77.47
2023-05-25T08:40:03.108Z,78.20
2023-05-25T08:42:33.236Z,80.40
2023-05-25T08:45:00.253Z,82.36
2023-05-25T08:47:32.148Z,81.78
2023-05-25T08:50:01.859Z,82.86
2023-05-25T08:52:34.293Z,85.52
2023-05-25T08:55:06.449Z,83.38
2023-05-25T08:57:33.542Z,81.87
2023-05-25T09:00:12.283Z,82.16
2023-05-25T09:02:42.293Z,82.28
2023-05-25T09:05:09.660Z,82.88
2023-05-25T09:07:36.740Z,85.03
2023-05-25T09:10:04.973Z,83.42
2023-05-25T09:12:32.229Z,83.66
2023-05-25T09:14:59.531Z,83.76
2023-05-25T09:17:27.436Z,86.40
2023-05-25T09:19:55.043Z,82.13
2023-05-25T09:22:22.400Z,82.25
2023-05-25T09:24:49.444Z,82.77
2023-05-25T09:27:19.349Z,83.08
2023-05-25T09:29:50.788Z,79.33
2023-05-25T09:32:19.084Z,81.55
2023-05-25T09:34:47.304Z,81.98
2023-05-25T09:37:19.415Z,83.77
2023-05-25T09:39:48.102Z,84.22
2023-05-25T09:42:15.199Z,85.13
2023-05-25T09:44:43.200Z,80.97
2023-05-25T09:47:10.255Z,79.16
2023-05-25T09:49:37.386Z,80.02
2023-05-25T09:52:04.621Z,80.04
2023-05-25T09:54:31.632Z,76.90
2023-05-25T09:57:05.260Z,75.79
2023-05-25T09:59:32.649Z,75.52
2023-05-25T10:01:59.776Z,75.72
2023-05-25T10:04:27.070Z,72.36
2023-05-25T10:06:56.828Z,73.25
2023-05-25T10:09:27.195Z,71.11
2023-05-25T10:11:56.218Z,70.55
2023-05-25T10:14:29.348Z,71.34
2023-05-25T10:17:04.569Z,70.44
2023-05-25T10:19:43.109Z,73.59
2023-05-25T10:22:24.163Z,69.61
2023-05-25T10:24:55.091Z,68.52
2023-05-25T10:27:27.826Z,67.66
2023-05-25T10:30:01.874Z,69.08
2023-05-25T10:32:34.828Z,68.14
2023-05-25T10:35:03.413Z,66.50
2023-05-25T10:37:31.750Z,70.26
2023-05-25T10:40:00.426Z,68.85
2023-05-25T10:42:30.833Z,67.91
2023-05-25T10:44:58.405Z,67.46
2023-05-25T10:47:25.914Z,64.47
2023-05-25T10:50:02.049Z,65.91
2023-05-25T10:52:33.280Z,67.89
2023-05-25T10:55:02.163Z,65.37
2023-05-25T10:57:32.724Z,63.01
2023-05-25T11:00:08.316Z,62.89
2023-05-25T11:02:50.420Z,65.71
2023-05-25T11:05:26.955Z,61.35
2023-05-25T11:07:57.547Z,61.02
2023-05-25T11:10:49.279Z,59.81
2023-05-25T11:13:31.451Z,61.57
2023-05-25T11:16:17.811Z,61.75
2023-05-25T11:18:59.030Z,61.02
2023-05-25T11:21:30.357Z,61.68
2023-05-25T11:24:11.239Z,60.56
2023-05-25T11:26:53.075Z,59.68
2023-05-25T11:29:22.037Z,59.19
2023-05-25T11:31:56.300Z,59.67
2023-05-25T11:34:26.872Z,59.67
2023-05-25T11:36:55.695Z,58.68
2023-05-25T11:39:23.587Z,60.68
2023-05-25T11:42:02.191Z,59.64
2023-05-25T11:44:31.627Z,60.57
2023-05-25T11:47:01.810Z,59.33
2023-05-25T11:49:29.148Z,59.31
2023-05-25T11:52:00.191Z,60.96
2023-05-25T11:54:29.101Z,58.61
2023-05-25T11:56:59.431Z,58.51
2023-05-25T11:59:29.816Z,57.30
2023-05-25T12:02:01.190Z,57.52
2023-05-25T12:04:34.019Z,60.03
2023-05-25T12:07:06.071Z,61.14
2023-05-25T12:09:33.430Z,62.24
2023-05-25T12:12:03.486Z,65.56
2023-05-25T12:14:30.637Z,63.84
2023-05-25T12:16:58.022Z,64.04
2023-05-25T12:19:25.287Z,64.89
2023-05-25T12:21:52.685Z,66.66
2023-05-25T12:24:19.918Z,65.42
2023-05-25T12:26:48.242Z,64.54
2023-05-25T12:29:15.268Z,61.12
2023-05-25T12:31:42.439Z,60.61
2023-05-25T12:34:17.923Z,58.92
2023-05-25T12:36:52.731Z,56.59
2023-05-25T12:39:34.655Z,57.82
2023-05-25T12:42:02.591Z,57.95
2023-05-25T12:44:37.375Z,57.01
2023-05-25T12:47:23.347Z,56.77
2023-05-25T12:49:52.998Z,56.44
2023-05-25T12:52:33.382Z,57.67
2023-05-25T12:55:19.715Z,56.47
2023-05-25T12:57:47.327Z,54.63
2023-05-25T13:00:14.443Z,55.83
2023-05-25T13:02:47.766Z,53.87
2023-05-25T13:05:30.529Z,52.80
2023-05-25T13:07:58.367Z,49.38
2023-05-25T13:10:26.178Z,47.84
2023-05-25T13:12:55.591Z,51.93
2023-05-25T13:15:22.547Z,53.11
2023-05-25T13:17:51.608Z,50.80
2023-05-25T13:20:20.273Z,52.38
2023-05-25T13:22:49.768Z,48.58
2023-05-25T13:25:17.031Z,50.55
2023-05-25T13:27:45.767Z,48.48
2023-05-25T13:30:13.317Z,45.13
2023-05-25T13:32:40.576Z,44.35
2023-05-25T13:35:08.083Z,45.02
2023-05-25T13:37:35.073Z,44.94
2023-05-25T13:40:01.996Z,45.97
2023-05-25T13:42:32.371Z,45.36
2023-05-25T13:44:59.344Z,44.50
2023-05-25T13:47:26.413Z,46.80
2023-05-25T13:49:53.557Z,45.81
2023-05-25T13:52:20.488Z,46.00
2023-05-25T13:54:47.437Z,46.87
2023-05-25T13:57:14.588Z,45.47
2023-05-25T13:59:41.509Z,44.83
2023-05-25T14:02:08.611Z,43.26
2023-05-25T14:04:35.654Z,43.36
2023-05-25T14:07:02.794Z,44.94
2023-05-25T14:09:29.827Z,43.39
2023-05-25T14:11:57.148Z,42.26
2023-05-25T14:14:32.113Z,40.88
2023-05-25T14:17:01.438Z,41.97
2023-05-25T14:19:28.940Z,40.27
2023-05-25T14:22:11.790Z,40.84
2023-05-25T14:24:40.144Z,41.74
2023-05-25T14:27:07.419Z,41.39
2023-05-25T14:29:34.594Z,41.89
2023-05-25T14:32:01.901Z,43.22
2023-05-25T14:34:29.579Z,42.84
2023-05-25T14:36:56.819Z,42.76
2023-05-25T14:39:23.756Z,42.96
2023-05-25T14:41:50.974Z,42.16
2023-05-25T14:44:17.902Z,41.41
2023-05-25T14:46:45.060Z,42.29
2023-05-25T14:49:13.566Z,42.52
2023-05-25T14:51:40.544Z,42.88
2023-05-25T14:54:08.009Z,42.67
2023-05-25T14:56:35.176Z,40.90
2023-05-25T14:59:02.445Z,40.82
2023-05-25T15:01:29.593Z,40.96
2023-05-25T15:03:57.003Z,41.32
2023-05-25T15:06:24.453Z,39.83
2023-05-25T15:08:51.689Z,39.15
2023-05-25T15:11:18.978Z,39.02
2023-05-25T15:13:46.604Z,39.46
2023-05-25T15:16:14.907Z,37.27
2023-05-25T15:18:42.175Z,37.49
2023-05-25T15:21:09.623Z,39.08
2023-05-25T15:23:37.109Z,39.43
2023-05-25T15:26:04.851Z,40.56
2023-05-25T15:28:31.958Z,44.27
2023-05-25T15:31:01.729Z,47.67
2023-05-25T15:33:47.874Z,48.05
2023-05-25T15:36:17.921Z,48.58
2023-05-25T15:38:49.060Z,48.99
2023-05-25T15:41:17.387Z,51.62
2023-05-25T15:43:58.150Z,54.48
2023-05-25T15:46:26.048Z,57.14
2023-05-25T15:48:54.259Z,58.45
2023-05-25T15:51:22.152Z,61.39
2023-05-25T15:53:49.067Z,63.20
2023-05-25T15:56:16.134Z,67.20
2023-05-25T15:58:47.107Z,68.81
2023-05-25T16:01:14.404Z,70.41
2023-05-25T16:03:43.154Z,72.86
2023-05-25T16:06:11.157Z,74.43
2023-05-25T16:08:38.458Z,75.99
2023-05-25T16:11:05.773Z,76.01
2023-05-25T16:13:32.692Z,76.98
2023-05-25T16:15:59.658Z,77.64
2023-05-25T16:18:26.850Z,78.50
2023-05-25T16:20:55.978Z,77.29
2023-05-25T16:23:24.225Z,77.61
2023-05-25T16:25:51.258Z,77.77
2023-05-25T16:28:18.247Z,76.20
2023-05-25T16:30:45.352Z,75.37
2023-05-25T16:33:12.365Z,78.99
2023-05-25T16:35:39.467Z,81.17
2023-05-25T16:38:06.334Z,80.52
2023-05-25T16:40:33.663Z,79.30
2023-05-25T16:43:00.869Z,77.03
2023-05-25T16:45:28.209Z,75.82
2023-05-25T16:47:55.258Z,78.13
2023-05-25T16:50:22.331Z,78.67
2023-05-25T16:52:49.340Z,77.40
2023-05-25T16:55:16.626Z,79.26
2023-05-25T16:57:43.652Z,79.40
2023-05-25T17:00:11.576Z,79.19
2023-05-25T17:02:38.648Z,78.82
2023-05-25T17:05:06.927Z,77.26
2023-05-25T17:07:34.754Z,79.81
2023-05-25T17:10:02.071Z,81.73
2023-05-25T17:12:32.170Z,82.91
2023-05-25T17:14:59.180Z,85.47
2023-05-25T17:17:28.046Z,85.56
2023-05-25T17:19:55.627Z,83.88
2023-05-25T17:22:23.089Z,85.48
2023-05-25T17:24:50.216Z,86.88
2023-05-25T17:27:17.317Z,88.47
2023-05-25T17:29:44.298Z,88.65
2023-05-25T17:32:11.478Z,89.13
2023-05-25T17:34:38.515Z,87.48
2023-05-25T17:37:05.616Z,87.85
2023-05-25T17:39:32.539Z,88.61
2023-05-25T17:41:59.582Z,90.18
2023-05-25T17:44:26.996Z,89.23
2023-05-25T17:46:53.973Z,89.08
2023-05-25T17:49:20.973Z,89.72
2023-05-25T17:51:48.034Z,89.29
2023-05-25T17:54:18.425Z,88.53
2023-05-25T17:56:46.501Z,89.42
2023-05-25T17:59:13.474Z,91.03
2023-05-25T18:01:41.893Z,90.50
2023-05-25T18:04:09.138Z,90.11
2023-05-25T18:06:37.117Z,90.07
2023-05-25T18:09:04.376Z,89.60
2023-05-25T18:11:33.643Z,90.83
2023-05-25T18:14:00.736Z,90.74
2023-05-25T18:16:27.759Z,91.04
2023-05-25T18:18:54.789Z,90.98
2023-05-25T18:21:21.778Z,90.21
2023-05-25T18:23:48.851Z,90.43
2023-05-25T18:26:15.979Z,90.12
2023-05-25T18:28:43.026Z,91.50
2023-05-25T18:31:09.982Z,91.58
2023-05-25T18:33:37.244Z,93.33
2023-05-25T18:36:04.313Z,93.04
2023-05-25T18:38:31.392Z,93.82
2023-05-25T18:40:58.378Z,92.25
2023-05-25T18:43:26.158Z,91.72
2023-05-25T18:45:53.263Z,91.82
2023-05-25T18:48:20.380Z,91.28
2023-05-25T18:50:47.380Z,88.13
2023-05-25T18:53:14.350Z,87.27
2023-05-25T18:55:41.261Z,88.16
2023-05-25T18:58:08.329Z,88.46
2023-05-25T19:00:35.357Z,91.25
2023-05-25T19:03:02.341Z,93.25
2023-05-25T19:05:29.445Z,93.48
2023-05-25T19:07:59.543Z,94.56
2023-05-25T19:10:27.570Z,93.64
2023-05-25T19:12:55.072Z,94.16
2023-05-25T19:15:22.191Z,95.75
2023-05-25T19:17:49.235Z,99.02
2023-05-25T19:20:16.790Z,98.41
2023-05-25T19:22:44.187Z,99.59
2023-05-25T19:25:11.307Z,100.00
2023-05-25T19:27:38.415Z,100.00
2023-05-25T19:30:05.951Z,100.00
2023-05-25T19:32:33.627Z,100.00
2023-05-25T19:35:00.576Z,100.00
2023-05-25T19:37:27.610Z,100.00
2023-05-25T19:39:54.694Z,100.00
2023-05-25T19:42:21.745Z,100.00
2023-05-25T19:44:48.788Z,100.00
2023-05-25T19:47:16.001Z,100.00
2023-05-25T19:49:43.326Z,100.00
2023-05-25T19:52:10.293Z,100.00
2023-05-25T19:54:39.492Z,100.00
2023-05-25T19:57:07.440Z,100.00
2023-05-25T19:59:34.540Z,100.00
2023-05-25T20:02:01.806Z,100.00
2023-05-25T20:04:28.864Z,100.00
2023-05-25T20:06:55.958Z,100.00
2023-05-25T20:09:30.598Z,100.00
2023-05-25T20:11:58.956Z,100.00
2023-05-25T20:14:26.563Z,100.00
2023-05-25T20:16:55.819Z,100.00
2023-05-25T20:19:23.434Z,100.00
2023-05-25T20:21:51.019Z,100.00
2023-05-25T20:24:18.227Z,100.00
2023-05-25T20:26:45.665Z,100.00
2023-05-25T20:29:12.648Z,100.00
2023-05-25T20:31:40.547Z,100.00
2023-05-25T20:34:07.737Z,100.00
2023-05-25T20:36:34.817Z,100.00
2023-05-25T20:39:03.254Z,100.00
2023-05-25T20:41:30.687Z,100.00
2023-05-25T20:43:57.943Z,100.00
2023-05-25T20:46:26.168Z,100.00
2023-05-25T20:48:53.614Z,100.00
2023-05-25T20:51:21.974Z,100.00
2023-05-25T20:53:49.038Z,100.00
2023-05-25T20:56:16.199Z,100.00
2023-05-25T20:58:43.243Z,100.00
2023-05-25T21:01:10.329Z,100.00
2023-05-25T21:03:37.350Z,100.00
2023-05-25T21:06:04.589Z,100.00
2023-05-25T21:08:32.101Z,100.00
2023-05-25T21:10:59.266Z,100.00
2023-05-25T21:13:26.290Z,100.00
2023-05-25T21:15:53.344Z,100.00
2023-05-25T21:18:20.539Z,100.00
2023-05-25T21:20:47.489Z,100.00
2023-05-25T21:23:14.877Z,100.00
2023-05-25T21:25:41.762Z,100.00
2023-05-25T21:28:10.393Z,100.00
2023-05-25T21:30:37.287Z,100.00
2023-05-25T21:33:04.356Z,100.00
2023-05-25T21:35:31.476Z,100.00
2023-05-25T21:37:58.464Z,100.00
2023-05-25T21:40:25.489Z,100.00
2023-05-25T21:42:53.466Z,100.00
2023-05-25T21:45:21.297Z,100.00
2023-05-25T21:47:48.432Z,100.00
2023-05-25T21:50:15.874Z,100.00
2023-05-25T21:52:43.017Z,100.00
2023-05-25T21:55:10.198Z,100.00
2023-05-25T21:57:37.672Z,100.00
2023-05-25T22:00:06.571Z,100.00
2023-05-25T22:02:41.033Z,100.00
2023-05-25T22:05:08.108Z,100.00
2023-05-25T22:07:35.030Z,100.00
2023-05-25T22:10:02.126Z,100.00
2023-05-25T22:12:30.803Z,100.00
2023-05-25T22:14:57.817Z,100.00
2023-05-25T22:17:24.862Z,100.00
2023-05-25T22:20:03.232Z,100.00
2023-05-25T22:22:34.203Z,100.00
2023-05-25T22:25:01.314Z,100.00
2023-05-25T22:27:30.529Z,100.00
2023-05-25T22:29:57.432Z,100.00
2023-05-25T22:32:24.501Z,100.00
2023-05-25T22:34:51.465Z,100.00
2023-05-25T22:37:18.898Z,100.00
2023-05-25T22:39:45.828Z,100.00
2023-05-25T22:42:12.880Z,100.00
2023-05-25T22:44:39.862Z,100.00
2023-05-25T22:47:07.080Z,100.00
2023-05-25T22:49:41.265Z,100.00
2023-05-25T22:52:10.507Z,100.00
2023-05-25T22:54:37.494Z,100.00
2023-05-25T22:57:04.712Z,100.00
2023-05-25T22:59:31.611Z,100.00
2023-05-25T23:01:58.805Z,100.00
2023-05-25T23:04:25.740Z,100.00
2023-05-25T23:06:52.766Z,100.00
2023-05-25T23:09:19.847Z,100.00
2023-05-25T23:11:46.928Z,100.00
2023-05-25T23:14:13.938Z,100.00
2023-05-25T23:16:41.692Z,100.00
2023-05-25T23:19:08.906Z,100.00
2023-05-25T23:21:35.858Z,100.00
2023-05-25T23:24:02.875Z,100.00
2023-05-25T23:26:29.794Z,100.00
2023-05-25T23:28:56.733Z,100.00
2023-05-25T23:31:23.914Z,100.00
2023-05-25T23:33:51.009Z,100.00
2023-05-25T23:36:18.080Z,100.00
2023-05-25T23:38:45.844Z,100.00
2023-05-25T23:41:12.919Z,100.00
2023-05-25T23:43:39.809Z,100.00
2023-05-25T23:46:07.349Z,100.00
2023-05-25T23:48:34.466Z,100.00
2023-05-25T23:51:01.496Z,100.00
2023-05-25T23:53:28.516Z,100.00
2023-05-25T23:55:55.592Z,100.00
2023-05-25T23:58:22.933Z,100.00
